メインページ
METAR-TAF:

METAR-TAF

空港 :

ダラス / フォートワース, テキサス州, アメリカ合衆国

ダラス・フォートワース国際空港

緯度: 32-53-49N, 経度: 097-01-19W, 海抜: 183m

現時点の気象観測

当レポートは24分前の22:53(UTC)に作成
の風 20kt、最大26ktの突風を伴う
気温 33°C
湿度 59%
気圧 1007 hPa
視程: 9.7km
高度3700ftの千切れ雲あり
煙霧

METAR: KDFW 272253Z 18020G26KT 6SM HZ BKN037 33/24 A2975 RMK AO2 PK WND 18027/2237 SLP064 T03280239

時間: 18:17 (23:17 UTC)

予報

当レポートは2時間17分前の21:00(UTC)に作成
予報は27日の 21時(UTC)から 28日の 24時(UTC)まで有効
の風 19kt
視程: 10km
高度3500ftの雲は散在している
高度25000ftの雲は散在している
28日の 0900時(UTC)から
南西の風 10kt
視程: 10km
高度1500ftの雲は散在している
高度25000ftの千切れ雲あり
近辺でにわか雨
28日の 1100時(UTC)から
北/北西の風 13kt
視程: 10km
高度1500ftの千切れ雲あり
近辺でにわか雨
28日の 1300時(UTC)から
北/北西の風 13kt
視程: 10km
高度1500ftの千切れ雲あり
28日の 2000時(UTC)から
の風 13kt
視程: 10km
高度2500ftの千切れ雲あり

TAF: KDFW 272100Z 2721/2824 18019KT P6SM SCT035 SCT250 FM280900 23010KT P6SM VCSH SCT015 BKN250 FM281100 34013KT P6SM VCSH BKN015 FM281300 34013KT P6SM BKN015 FM282000 36013KT P6SM BKN025

4,000以上の空港の気象観測と天気予報(METAR報とTAF報)

利用可能な観測所は地図上に黄色い丸と赤い丸で示す。

丸の上にカーソルを重ねると観測所名を参照できる。

次にクリックすると気象観測と天気予報を参照できる。

マップの切り替え:黒色「×」印の緑ボタンをクリックして拡大、「-」印の緑ボタンをクリックして縮小、緑色の三角印をクリックして隣りの地図に切り替え


METAR-TAF: